CheckWX is a tool to help pilots better visualize weather data.  It is not intended as a substitute for an official pre-flight weather briefing.

03:44:28 UTC

VTCP METAR
Phrae Airport
Thailand
Current

44 mins ago

VTCP 180300Z VRB02KT 6000 FEW022 33/26 Q1012 NOSIG
Observed
Sep-18 @ 03:00 UTC
Wind
  • Variable at 2 KTS
Visibility
6,000 meters
Flight Rules
MVFR
Cloud Levels
  • Few at 2,200' AGL
Temperature
33°C / 91°F
Dewpoint
26°C / 79°F
Heat Index
42°C / 107°F
Humidity
67%
Altimeter
29.88" Hg
Pressure
1011.92 hPa
Previous

2 hours ago

VTCP 180200Z VRB02KT 4500 BR FEW020 28/24 Q1012 NOSIG
Observed
Sep-18 @ 02:00 UTC
Wind
  • Variable at 2 KTS
Visibility
4,500 meters
Flight Rules
IFR
Conditions
Mist
Cloud Levels
  • Few at 2,000' AGL
Temperature
28°C / 82°F
Dewpoint
24°C / 75°F
Heat Index
32°C / 89°F
Humidity
79%
Altimeter
29.88" Hg
Pressure
1011.92 hPa
Previous

3 hours ago

VTCP 180100Z 00000KT 4000 BR FEW020 25/24 Q1012 NOSIG
Observed
Sep-18 @ 01:00 UTC
Visibility
4,000 meters
Flight Rules
IFR
Conditions
Mist
Cloud Levels
  • Few at 2,000' AGL
Temperature
25°C / 77°F
Dewpoint
24°C / 75°F
Humidity
94%
Altimeter
29.88" Hg
Pressure
1011.92 hPa